createdAt,value
2023-04-25T00:01:10.896Z,100613.50
2023-04-25T00:03:40.299Z,100618.84
2023-04-25T00:06:08.558Z,100618.84
2023-04-25T00:08:36.352Z,100621.53
2023-04-25T00:11:04.216Z,100631.41
2023-04-25T00:13:31.984Z,100620.69
2023-04-25T00:16:00.116Z,100617.16
2023-04-25T00:18:31.130Z,100540.34
2023-04-25T00:20:58.927Z,100620.50
2023-04-25T00:23:26.777Z,100620.34
2023-04-25T00:25:54.587Z,100624.88
2023-04-25T00:28:22.386Z,100622.19
2023-04-25T00:30:50.127Z,100624.03
2023-04-25T00:33:17.941Z,100624.88
2023-04-25T00:35:45.804Z,100632.91
2023-04-25T00:38:13.781Z,100643.63
2023-04-25T00:40:41.546Z,100654.34
2023-04-25T00:43:09.317Z,100655.16
2023-04-25T00:45:37.440Z,100654.34
2023-04-25T00:48:05.317Z,100661.34
2023-04-25T00:50:33.089Z,100663.03
2023-04-25T00:53:00.857Z,100666.72
2023-04-25T00:55:28.606Z,100663.88
2023-04-25T00:57:56.398Z,100680.78
2023-04-25T01:00:24.138Z,100678.78
2023-04-25T01:02:52.436Z,100685.78
2023-04-25T01:05:20.872Z,100695.38
2023-04-25T01:07:49.291Z,100693.38
2023-04-25T01:10:17.102Z,100694.19
2023-04-25T01:12:44.853Z,100695.88
2023-04-25T01:15:12.692Z,100691.53
2023-04-25T01:17:41.425Z,100692.34
2023-04-25T01:20:09.526Z,100694.00
2023-04-25T01:22:37.290Z,100694.19
2023-04-25T01:25:05.331Z,100689.81
2023-04-25T01:27:33.176Z,100694.19
2023-04-25T01:30:01.104Z,100696.88
2023-04-25T01:32:29.102Z,100696.06
2023-04-25T01:34:56.906Z,100696.88
2023-04-25T01:37:24.647Z,100693.38
2023-04-25T01:39:52.541Z,100697.56
2023-04-25T01:42:20.335Z,100701.06
2023-04-25T01:44:48.091Z,100700.91
2023-04-25T01:47:15.959Z,100713.13
2023-04-25T01:49:43.848Z,100694.38
2023-04-25T01:52:11.693Z,100692.53
2023-04-25T01:54:39.481Z,100695.91
2023-04-25T01:57:07.241Z,100700.25
2023-04-25T01:59:34.996Z,100695.75
2023-04-25T02:02:05.702Z,100700.41
2023-04-25T02:04:33.576Z,100706.94
2023-04-25T02:07:01.613Z,100707.94
2023-04-25T02:09:29.613Z,100712.31
2023-04-25T02:11:57.496Z,100700.56
2023-04-25T02:14:25.254Z,100695.56
2023-04-25T02:16:53.418Z,100702.94
2023-04-25T02:19:21.292Z,100700.28
2023-04-25T02:21:49.151Z,100713.72
2023-04-25T02:24:16.991Z,100718.28
2023-04-25T02:26:45.172Z,100703.03
2023-04-25T02:29:12.960Z,100700.19
2023-04-25T02:31:40.821Z,100702.72
2023-04-25T02:34:08.650Z,100692.84
2023-04-25T02:36:37.464Z,100684.59
2023-04-25T02:39:05.323Z,100683.59
2023-04-25T02:41:33.091Z,100692.34
2023-04-25T02:44:03.923Z,100683.25
2023-04-25T02:46:38.974Z,100694.66
2023-04-25T02:49:07.436Z,100682.88
2023-04-25T02:51:35.273Z,100680.19
2023-04-25T02:54:03.071Z,100676.63
2023-04-25T02:56:30.965Z,100670.19
2023-04-25T02:58:58.750Z,100661.44
2023-04-25T03:01:26.646Z,100660.13
2023-04-25T03:03:54.966Z,100658.28
2023-04-25T03:06:23.088Z,100653.09
2023-04-25T03:08:50.850Z,100644.19
2023-04-25T03:11:18.631Z,100641.81
2023-04-25T03:13:46.480Z,100635.13
2023-04-25T03:16:14.291Z,100638.16
2023-04-25T03:18:42.038Z,100637.66
2023-04-25T03:21:09.879Z,100626.25
2023-04-25T03:23:37.665Z,100615.06
2023-04-25T03:26:05.989Z,100615.22
2023-04-25T03:28:33.858Z,100603.16
2023-04-25T03:31:01.634Z,100607.03
2023-04-25T03:33:29.365Z,100603.69
2023-04-25T03:35:57.273Z,100599.50
2023-04-25T03:38:27.072Z,100598.00
2023-04-25T03:40:55.121Z,100608.91
2023-04-25T03:43:22.948Z,100601.84
2023-04-25T03:45:50.710Z,100602.06
2023-04-25T03:48:18.530Z,100596.03
2023-04-25T03:50:46.292Z,100595.34
2023-04-25T03:53:14.059Z,100590.00
2023-04-25T03:55:43.507Z,100587.31
2023-04-25T03:58:11.407Z,100585.63
2023-04-25T04:00:39.161Z,100583.94
2023-04-25T04:03:07.190Z,100573.38
2023-04-25T04:05:35.431Z,100577.09
2023-04-25T04:08:03.221Z,100577.25
2023-04-25T04:10:31.040Z,100572.91
2023-04-25T04:12:58.911Z,100565.84
2023-04-25T04:15:26.723Z,100563.19
2023-04-25T04:17:54.553Z,100565.19
2023-04-25T04:20:22.433Z,100559.81
2023-04-25T04:22:50.189Z,100551.78
2023-04-25T04:25:17.912Z,100556.31
2023-04-25T04:27:46.879Z,100544.75
2023-04-25T04:30:14.636Z,100541.41
2023-04-25T04:32:42.391Z,100543.25
2023-04-25T04:35:11.055Z,100533.69
2023-04-25T04:37:38.926Z,100534.88
2023-04-25T04:40:07.184Z,100538.59
2023-04-25T04:42:35.098Z,100533.38
2023-04-25T04:45:03.526Z,100530.81
2023-04-25T04:47:34.590Z,100533.50
2023-04-25T04:50:02.382Z,100517.41
2023-04-25T04:52:30.142Z,100516.59
2023-04-25T04:54:58.266Z,100513.91
2023-04-25T04:57:26.094Z,100511.22
2023-04-25T04:59:53.854Z,100505.84
2023-04-25T05:02:22.101Z,100505.19
2023-04-25T05:04:50.122Z,100496.16
2023-04-25T05:07:17.961Z,100492.44
2023-04-25T05:09:45.713Z,100491.47
2023-04-25T05:12:13.546Z,100485.09
2023-04-25T05:14:41.305Z,100483.25
2023-04-25T05:17:10.505Z,100483.91
2023-04-25T05:19:38.300Z,100476.72
2023-04-25T05:22:06.233Z,100461.44
2023-04-25T05:24:33.994Z,100460.63
2023-04-25T05:27:01.997Z,100463.09
2023-04-25T05:29:29.798Z,100459.41
2023-04-25T05:31:57.657Z,100453.19
2023-04-25T05:34:25.519Z,100458.56
2023-04-25T05:36:53.293Z,100448.69
2023-04-25T05:39:21.085Z,100444.31
2023-04-25T05:41:48.896Z,100442.66
2023-04-25T05:44:17.900Z,100432.75
2023-04-25T05:46:45.688Z,100426.38
2023-04-25T05:49:13.506Z,100427.41
2023-04-25T05:51:41.290Z,100422.03
2023-04-25T05:54:09.032Z,100412.31
2023-04-25T05:56:36.851Z,100407.78
2023-04-25T05:59:10.635Z,100411.28
2023-04-25T06:01:38.457Z,100398.72
2023-04-25T06:04:06.676Z,100387.16
2023-04-25T06:06:34.686Z,100396.84
2023-04-25T06:09:02.626Z,100372.72
2023-04-25T06:11:30.447Z,100374.41
2023-04-25T06:13:58.306Z,100366.19
2023-04-25T06:16:27.990Z,100370.53
2023-04-25T06:18:55.998Z,100368.66
2023-04-25T06:21:23.834Z,100364.97
2023-04-25T06:23:51.946Z,100364.97
2023-04-25T06:26:19.919Z,100359.63
2023-04-25T06:28:47.776Z,100352.56
2023-04-25T06:31:15.615Z,100346.19
2023-04-25T06:33:43.483Z,100348.88
2023-04-25T06:36:11.677Z,100336.47
2023-04-25T06:38:39.464Z,100319.53
2023-04-25T06:41:07.293Z,100319.53
2023-04-25T06:43:35.509Z,100313.34
2023-04-25T06:46:03.308Z,100306.28
2023-04-25T06:48:31.055Z,100310.84
2023-04-25T06:50:58.849Z,100310.84
2023-04-25T06:53:26.713Z,100311.00
2023-04-25T06:55:54.480Z,100298.63
2023-04-25T06:58:22.244Z,100282.69
2023-04-25T07:00:50.164Z,100288.06
2023-04-25T07:03:18.183Z,100273.81
2023-04-25T07:05:47.868Z,100280.22
2023-04-25T07:08:15.709Z,100279.34
2023-04-25T07:10:43.462Z,100272.16
2023-04-25T07:13:14.263Z,100270.47
2023-04-25T07:15:42.087Z,100267.81
2023-04-25T07:18:09.863Z,100255.41
2023-04-25T07:20:37.625Z,100255.41
2023-04-25T07:23:05.418Z,100242.97
2023-04-25T07:25:33.286Z,100233.28
2023-04-25T07:28:01.124Z,100231.59
2023-04-25T07:30:29.447Z,100225.22
2023-04-25T07:32:57.692Z,100203.75
2023-04-25T07:35:25.433Z,100190.34
2023-04-25T07:37:53.653Z,100184.78
2023-04-25T07:40:21.526Z,100182.31
2023-04-25T07:42:49.718Z,100182.31
2023-04-25T07:45:18.343Z,100192.38
2023-04-25T07:47:46.908Z,100203.09
2023-04-25T07:50:14.718Z,100205.78
2023-04-25T07:52:42.561Z,100220.03
2023-04-25T07:55:10.300Z,100225.56
2023-04-25T07:57:38.154Z,100225.56
2023-04-25T08:00:06.977Z,100219.19
2023-04-25T08:02:34.936Z,100199.41
2023-04-25T08:05:03.096Z,100178.97
2023-04-25T08:07:31.070Z,100167.22
2023-04-25T08:09:58.899Z,100156.47
2023-04-25T08:12:26.940Z,100154.63
2023-04-25T08:14:55.295Z,100157.50
2023-04-25T08:17:23.084Z,100168.22
2023-04-25T08:19:51.114Z,100199.59
2023-04-25T08:22:18.943Z,100259.44
2023-04-25T08:24:46.695Z,100261.28
2023-04-25T08:27:14.543Z,100240.00
2023-04-25T08:29:42.390Z,100249.03
2023-04-25T08:32:10.188Z,100289.47
2023-04-25T08:34:40.055Z,100289.47
2023-04-25T08:37:07.926Z,100310.06
2023-04-25T08:39:35.673Z,100202.53
2023-04-25T08:44:24.611Z,100306.56
2023-04-25T08:46:52.629Z,100265.13
2023-04-25T08:49:21.041Z,100254.06
2023-04-25T08:51:49.201Z,100271.50
2023-04-25T08:56:38.224Z,100296.41
2023-04-25T08:59:06.273Z,100287.84
2023-04-25T09:01:34.118Z,100297.00
2023-04-25T09:04:02.205Z,100284.72
2023-04-25T09:06:30.262Z,100252.13
2023-04-25T09:08:58.030Z,100233.66
2023-04-25T09:11:26.268Z,100217.81
2023-04-25T09:13:54.017Z,100209.38
2023-04-25T09:16:23.683Z,100193.75
2023-04-25T09:18:52.225Z,100172.75
2023-04-25T09:21:20.057Z,100167.00
2023-04-25T09:23:47.841Z,100182.72
2023-04-25T09:26:15.660Z,100203.00
2023-04-25T09:28:45.022Z,100216.91
2023-04-25T09:31:13.537Z,100247.09
2023-04-25T09:33:42.175Z,100249.41
2023-04-25T09:36:10.029Z,100248.25
2023-04-25T09:38:37.765Z,100245.34
2023-04-25T09:41:05.499Z,100234.25
2023-04-25T09:43:33.304Z,100231.38
2023-04-25T09:46:02.258Z,100232.00
2023-04-25T09:49:49.766Z,100228.13
2023-04-25T09:52:17.758Z,100230.63
2023-04-25T09:54:45.534Z,100227.75
2023-04-25T09:57:13.715Z,100236.47
2023-04-25T09:59:41.635Z,100239.81
2023-04-25T10:02:09.425Z,100241.47
2023-04-25T10:04:37.442Z,100235.91
2023-04-25T10:07:05.376Z,100251.84
2023-04-25T10:09:35.771Z,100248.13
2023-04-25T10:12:03.667Z,100249.78
2023-04-25T10:14:31.475Z,100258.50
2023-04-25T10:16:59.273Z,100244.06
2023-04-25T10:19:27.185Z,100237.66
2023-04-25T10:21:54.943Z,100232.28
2023-04-25T10:24:22.692Z,100223.84
2023-04-25T10:26:50.472Z,100224.69
2023-04-25T10:29:18.380Z,100215.41
2023-04-25T10:31:46.394Z,100193.56
2023-04-25T10:34:14.332Z,100184.06
2023-04-25T10:36:42.177Z,100176.47
2023-04-25T10:39:11.251Z,100171.56
2023-04-25T10:41:39.078Z,100196.38
2023-04-25T10:44:06.945Z,100195.53
2023-04-25T10:46:36.044Z,100184.34
2023-04-25T10:49:03.911Z,100181.03
2023-04-25T10:51:43.442Z,100192.97
2023-04-25T10:54:19.169Z,100195.22
2023-04-25T10:56:46.920Z,100214.59
2023-04-25T10:59:14.739Z,100230.44
2023-04-25T11:01:42.781Z,100245.91
2023-04-25T11:04:10.802Z,100242.94
2023-04-25T11:06:39.219Z,100241.84
2023-04-25T11:09:07.006Z,100238.84
2023-04-25T11:11:34.843Z,100238.41
2023-04-25T11:14:02.562Z,100239.63
2023-04-25T11:16:30.328Z,100245.34
2023-04-25T11:18:58.120Z,100249.41
2023-04-25T11:21:25.934Z,100255.16
